GAL weather

Edward G. Pitka Sr Airport
Galena, Alaska, United States

Public forecast

Using degrees Fahrenheit for public forecast. Weather courtesy of forecast.io.

Current aviation weather report (METAR) for Edward G. Pitka Sr Airport

Retrieved 2020/05/25 20:56 UTC (12 minutes ago):

PAGA 252056Z 27005KT 10SM BKN055 14/01 A2981

Aviation forecast (TAF) for Edward G. Pitka Sr Airport

Retrieved 2020/05/25 18:30 UTC (3 hours ago):

TAF PAGA 251728Z 2518/2618 VRB06KT P6SM FEW050 SCT100